Time;durP1;ratioP1;P1;durP2;ratioP2;P2;SDS_P1;SDS_P2;PMS_P1;PMS_P2;Temp;Humidity;BMP_temperature;BMP_pressure;BME280_temperature;BME280_humidity;BME280_pressure;Samples;Min_cycle;Max_cycle;Signal;HPM_P1;HPM_P2
2023/03/02 00:00:13;;;;;;;36.50;31.25;;;;;;;8.05;49.17;98585.91;5094072;28;20027;-47
2023/03/02 00:02:50;;;;;;;39.38;31.38;;;;;;;8.20;49.37;98578.84;5111529;28;20503;-46
2023/03/02 00:05:20;;;;;;;40.53;30.85;;;;;;;8.31;49.16;98583.56;5112318;28;20012;-46
2023/03/02 00:07:47;;;;;;;44.13;29.45;;;;;;;8.51;48.98;98589.00;5112175;28;20035;-46
2023/03/02 00:10:13;;;;;;;38.13;30.90;;;;;;;8.66;48.51;98582.84;5077129;28;20028;-46
2023/03/02 00:12:39;;;;;;;39.45;29.98;;;;;;;8.77;48.08;98585.75;5112126;28;20027;-46
2023/03/02 00:15:06;;;;;;;43.20;31.48;;;;;;;8.83;47.73;98583.38;5093857;28;20035;-46
2023/03/02 00:17:39;;;;;;;49.70;32.83;;;;;;;8.87;47.85;98582.78;5090009;28;20402;-47
2023/03/02 00:20:11;;;;;;;48.25;30.35;;;;;;;8.98;47.79;98586.69;5090470;28;20035;-46
2023/03/02 00:22:38;;;;;;;42.90;29.90;;;;;;;9.02;47.37;98592.38;5084800;28;20081;-46
2023/03/02 00:25:07;;;;;;;39.53;30.17;;;;;;;9.00;47.29;98592.53;5090447;28;20131;-46
2023/03/02 00:27:33;;;;;;;41.10;30.60;;;;;;;8.91;47.15;98586.63;5084148;28;20111;-46
2023/03/02 00:30:04;;;;;;;40.80;31.08;;;;;;;8.72;46.67;98590.75;5091623;28;20054;-47
2023/03/02 00:32:47;;;;;;;38.55;29.67;;;;;;;8.50;46.97;98594.41;5083849;28;20197;-48
2023/03/02 00:35:17;;;;;;;36.67;29.45;;;;;;;8.24;47.23;98603.59;5090269;28;20035;-47
2023/03/02 00:37:47;;;;;;;38.17;28.67;;;;;;;8.02;47.39;98601.97;5085585;28;20103;-47
2023/03/02 00:40:20;;;;;;;42.10;29.85;;;;;;;7.85;48.07;98614.44;5090266;28;20089;-46
2023/03/02 00:43:04;;;;;;;41.45;27.90;;;;;;;7.80;47.85;98610.59;5085869;28;20023;-47
2023/03/02 00:45:39;;;;;;;42.58;29.02;;;;;;;7.72;48.15;98610.69;5091544;28;20035;-48
2023/03/02 00:48:22;;;;;;;40.03;29.58;;;;;;;7.64;47.91;98610.00;5091471;28;20108;-47
2023/03/02 00:50:50;;;;;;;37.63;29.45;;;;;;;7.54;48.35;98610.28;5089517;28;20035;-47
2023/03/02 00:53:36;;;;;;;36.22;28.58;;;;;;;7.42;48.57;98611.75;5094149;28;20020;-47
2023/03/02 00:56:18;;;;;;;35.05;26.38;;;;;;;7.34;48.24;98610.84;5091837;28;20039;-47
2023/03/02 00:58:44;;;;;;;38.08;27.98;;;;;;;7.36;49.00;98605.44;5095298;28;20462;-47
2023/03/02 01:01:23;;;;;;;36.33;28.77;;;;;;;7.41;48.83;98608.34;5095256;28;20024;-47
2023/03/02 01:04:08;;;;;;;37.03;28.27;;;;;;;7.46;49.02;98610.38;5089920;28;20117;-46
2023/03/02 01:06:56;;;;;;;36.75;26.80;;;;;;;7.44;48.88;98604.53;5093952;28;20077;-46
2023/03/02 01:09:25;;;;;;;42.22;27.40;;;;;;;7.55;48.42;98588.41;5094962;28;20043;-47
2023/03/02 01:12:02;;;;;;;36.08;27.05;;;;;;;7.58;48.99;98591.44;5090064;28;20028;-47
2023/03/02 01:14:36;;;;;;;36.85;26.52;;;;;;;7.72;48.72;98587.19;5094978;28;20017;-46
2023/03/02 01:17:21;;;;;;;44.40;29.48;;;;;;;7.78;48.69;98585.66;5091332;28;20409;-48
2023/03/02 01:19:47;;;;;;;39.08;30.55;;;;;;;7.83;48.29;98583.31;5089405;28;20038;-46
2023/03/02 01:22:36;;;;;;;43.95;34.17;;;;;;;7.86;48.33;98579.50;5095111;28;20420;-46
2023/03/02 01:25:13;;;;;;;36.10;27.80;;;;;;;7.99;48.77;98574.44;5091422;28;20114;-48
2023/03/02 01:27:53;;;;;;;34.40;25.55;;;;;;;8.02;47.95;98578.47;5088111;28;20421;-48
2023/03/02 01:30:31;;;;;;;33.63;25.38;;;;;;;7.83;47.61;98582.47;5094674;28;20111;-48
2023/03/02 01:33:03;;;;;;;36.30;25.88;;;;;;;7.72;47.56;98592.41;5090523;28;20043;-46
2023/03/02 01:35:46;;;;;;;35.15;25.80;;;;;;;7.54;48.06;98590.19;5094609;28;20438;-47
2023/03/02 01:38:22;;;;;;;35.75;27.48;;;;;;;7.43;48.26;98587.28;5092543;28;20024;-47
2023/03/02 01:41:04;;;;;;;;;;;;;;;7.37;48.29;98591.41;5094951;28;20414;-48
2023/03/02 01:43:37;;;;;;;55.70;42.47;;;;;;;7.25;48.42;98585.03;5094433;28;19915;-46
2023/03/02 01:46:46;;;;;;;133.32;113.05;;;;;;;7.15;48.74;98588.72;5094377;28;20095;-47
2023/03/02 01:49:23;;;;;;;46.05;33.08;;;;;;;7.10;49.01;98577.19;5011274;28;20030;-48
2023/03/02 01:52:09;;;;;;;43.97;30.52;;;;;;;7.19;48.99;98578.72;5012144;28;20034;-47
2023/03/02 01:54:48;;;;;;;38.88;28.35;;;;;;;7.17;49.63;98572.88;5012085;28;20036;-47
2023/03/02 01:57:42;;;;;;;36.97;27.75;;;;;;;7.41;49.58;98579.63;5011951;28;20030;-47
2023/03/02 02:01:02;;;;;;;32.95;26.50;;;;;;;7.62;49.16;98578.84;5011048;28;20045;-47
2023/03/02 02:03:48;;;;;;;;;;;;;;;7.67;48.52;98573.88;5012381;28;20495;-47
2023/03/02 02:06:57;;;;;;;38.75;27.98;;;;;;;7.62;48.85;98576.22;4995468;28;19909;-47
2023/03/02 02:09:58;;;;;;;39.95;28.48;;;;;;;7.60;48.74;98571.19;5010929;28;20096;-47
2023/03/02 02:12:37;;;;;;;34.85;27.02;;;;;;;7.57;48.49;98560.31;4995248;28;20028;-47
2023/03/02 02:15:19;;;;;;;36.20;27.42;;;;;;;7.44;49.08;98563.56;4979167;28;20492;-47
2023/03/02 02:18:06;;;;;;;67.85;49.88;;;;;;;7.38;49.23;98562.53;5010973;28;20496;-46
2023/03/02 02:20:52;;;;;;;41.67;30.83;;;;;;;7.42;49.94;98559.53;5011511;28;20037;-47
2023/03/02 02:24:13;;;;;;;38.38;28.17;;;;;;;7.65;50.11;98554.19;5055945;28;20035;-46
2023/03/02 02:26:57;;;;;;;42.67;29.25;;;;;;;7.69;49.36;98553.63;5088311;28;20028;-47
2023/03/02 02:30:09;;;;;;;36.45;26.90;;;;;;;7.68;49.67;98557.22;5084608;28;20440;-46
2023/03/02 02:32:46;;;;;;;35.15;25.85;;;;;;;7.56;49.58;98563.91;5093574;28;20111;-46
2023/03/02 02:35:46;;;;;;;31.67;23.90;;;;;;;7.48;49.67;98567.44;5091310;28;20020;-46
2023/03/02 02:38:28;;;;;;;36.17;25.52;;;;;;;7.72;50.06;98561.06;5091446;28;20036;-47
2023/03/02 02:41:31;;;;;;;32.33;25.23;;;;;;;8.03;49.92;98572.22;5072061;28;20115;-47
2023/03/02 02:44:36;;;;;;;40.83;26.27;;;;;;;8.22;49.11;98563.75;5093219;28;20032;-47
2023/03/02 02:47:23;;;;;;;36.38;26.45;;;;;;;8.18;48.69;98565.13;5093277;28;20101;-47
2023/03/02 02:49:57;;;;;;;33.75;25.65;;;;;;;8.13;48.83;98567.50;5093165;28;20028;-46
2023/03/02 02:52:40;;;;;;;36.75;26.73;;;;;;;8.21;49.32;98570.00;5084250;28;20517;-46
2023/03/02 02:55:19;;;;;;;40.25;25.45;;;;;;;8.30;49.21;98568.88;5093109;28;20394;-47
2023/03/02 02:58:46;;;;;;;36.45;25.65;;;;;;;8.49;48.62;98564.00;5091884;28;20067;-47
2023/03/02 03:01:25;;;;;;;37.30;26.15;;;;;;;8.49;47.52;98561.38;5092859;28;20081;-48
2023/03/02 03:04:06;;;;;;;35.90;28.63;;;;;;;8.04;48.71;98563.41;5092908;28;20043;-47
2023/03/02 03:07:16;;;;;;;36.03;27.92;;;;;;;7.71;49.24;98567.31;5085132;28;20404;-47
2023/03/02 03:10:11;;;;;;;34.20;24.33;;;;;;;7.60;49.11;98570.38;5091455;28;20032;-48
2023/03/02 03:12:58;;;;;;;36.13;26.77;;;;;;;7.68;49.69;98566.84;5092105;28;20024;-46
2023/03/02 03:15:36;;;;;;;32.78;23.90;;;;;;;7.72;48.56;98570.72;5092674;28;20023;-47
2023/03/02 03:21:09;;;;;;;38.63;26.17;;;;;;;7.60;49.54;98570.38;5086577;28;20611;-46
2023/03/02 03:23:54;;;;;;;31.23;24.48;;;;;;;7.66;49.11;98567.03;5092953;28;20406;-47
2023/03/02 03:26:26;;;;;;;35.85;25.52;;;;;;;7.62;49.44;98576.22;5083081;28;20024;-46
2023/03/02 03:28:56;;;;;;;32.35;25.48;;;;;;;7.66;49.38;98572.25;5092450;28;20394;-47
2023/03/02 03:31:26;;;;;;;40.50;27.05;;;;;;;7.67;48.89;98578.31;5084499;28;20024;-46
2023/03/02 03:33:54;;;;;;;33.75;24.52;;;;;;;7.64;49.33;98576.06;5087550;28;20047;-46
2023/03/02 03:36:22;;;;;;;34.65;26.20;;;;;;;7.73;49.37;98572.34;5091033;28;20024;-46
2023/03/02 03:38:48;;;;;;;29.73;24.50;;;;;;;7.94;48.95;98569.75;5092305;28;20074;-46
2023/03/02 03:41:16;;;;;;;38.38;31.40;;;;;;;8.15;48.71;98566.34;5092315;28;20103;-46
2023/03/02 03:43:56;;;;;;;40.28;31.85;;;;;;;8.27;48.28;98571.88;5092233;28;20389;-47
2023/03/02 03:46:38;;;;;;;33.42;25.15;;;;;;;7.99;47.94;98574.44;5092189;28;20027;-47
2023/03/02 03:49:05;;;;;;;44.60;32.72;;;;;;;7.69;48.71;98584.97;5092108;28;20138;-46
2023/03/02 03:52:07;;;;;;;111.43;99.72;;;;;;;7.81;48.95;98574.84;5086719;28;20069;-47
2023/03/02 03:54:34;;;;;;;114.82;102.82;;;;;;;7.96;48.54;98577.41;5092058;28;20112;-47
2023/03/02 03:57:01;;;;;;;92.05;82.88;;;;;;;8.00;48.19;98574.22;5088266;28;20493;-47
2023/03/02 03:59:28;;;;;;;57.97;48.22;;;;;;;7.96;48.16;98569.56;5083830;28;20043;-46
2023/03/02 04:02:02;;;;;;;35.03;27.60;;;;;;;7.85;47.71;98567.41;5091939;28;20017;-47
2023/03/02 04:04:44;;;;;;;32.28;25.48;;;;;;;7.66;47.71;98572.25;5091935;28;20039;-47
2023/03/02 04:07:27;;;;;;;35.72;25.23;;;;;;;7.62;48.30;98581.44;5091950;28;20069;-47
2023/03/02 04:10:08;;;;;;;39.65;26.58;;;;;;;7.66;48.46;98580.09;5091837;28;20390;-48
2023/03/02 04:12:50;;;;;;;39.63;26.08;;;;;;;7.80;48.69;98574.00;5084525;28;20028;-47
2023/03/02 04:15:21;;;;;;;34.30;25.85;;;;;;;7.98;48.17;98570.19;5090560;28;20119;-47
2023/03/02 04:17:51;;;;;;;35.25;26.40;;;;;;;8.05;48.46;98576.28;5087281;28;20049;-48
2023/03/02 04:20:34;;;;;;;35.03;26.83;;;;;;;8.07;48.45;98576.91;5083470;28;20036;-48
2023/03/02 04:23:08;;;;;;;36.70;28.08;;;;;;;8.16;48.98;98578.38;5091765;28;20020;-46
2023/03/02 04:25:42;;;;;;;36.15;26.13;;;;;;;8.26;47.96;98580.69;5073232;28;20025;-46
2023/03/02 04:28:25;;;;;;;40.30;28.20;;;;;;;8.32;48.11;98585.16;5094655;28;20028;-47
2023/03/02 04:31:08;;;;;;;39.00;24.90;;;;;;;8.33;48.56;98584.19;5095757;28;20031;-47
2023/03/02 04:33:52;;;;;;;42.67;27.90;;;;;;;8.28;48.24;98583.94;5095897;28;20371;-48
2023/03/02 04:36:38;;;;;;;35.80;24.52;;;;;;;8.28;47.47;98583.13;5074232;28;20020;-47
2023/03/02 04:39:15;;;;;;;;;;;;;;;8.26;47.70;98585.91;5076268;28;20082;-48
2023/03/02 04:42:06;;;;;;;34.42;25.27;;;;;;;8.26;47.28;98585.91;5095650;28;20015;-47
2023/03/02 04:44:56;;;;;;;35.13;25.77;;;;;;;8.33;47.78;98588.59;5095670;28;20442;-46
2023/03/02 04:47:46;;;;;;;38.47;25.35;;;;;;;8.30;47.41;98589.78;5095585;28;20020;-47
2023/03/02 04:50:26;;;;;;;45.95;26.17;;;;;;;8.40;48.00;98595.50;5095484;28;20402;-48
2023/03/02 04:53:08;;;;;;;36.33;26.10;;;;;;;8.51;47.46;98599.47;5095451;28;20127;-48
2023/03/02 04:55:46;;;;;;;35.63;25.98;;;;;;;8.47;47.13;98600.00;5073797;28;20032;-48
2023/03/02 04:58:24;;;;;;;34.30;26.00;;;;;;;8.47;47.47;98600.84;5094652;28;20032;-48
2023/03/02 05:00:53;;;;;;;36.80;26.38;;;;;;;8.54;47.44;98606.09;5095304;28;20466;-47
2023/03/02 05:03:21;;;;;;;34.78;26.63;;;;;;;8.50;47.88;98603.06;5095320;28;20472;-46
2023/03/02 05:05:47;;;;;;;33.08;26.60;;;;;;;8.57;47.33;98595.25;5095141;28;20064;-46
2023/03/02 05:08:15;;;;;;;32.08;24.92;;;;;;;8.54;46.56;98593.84;5076492;28;20028;-46
2023/03/02 05:10:42;;;;;;;35.35;25.13;;;;;;;8.47;46.97;98595.59;5095174;28;20055;-46
2023/03/02 05:13:09;;;;;;;36.75;26.85;;;;;;;8.47;46.75;98603.44;5095117;28;20024;-46
2023/03/02 05:15:39;;;;;;;38.75;25.38;;;;;;;8.46;47.29;98599.19;5056823;28;20024;-46
2023/03/02 05:18:09;;;;;;;32.70;24.50;;;;;;;8.52;46.61;98602.88;5094960;28;20071;-46
2023/03/02 05:20:37;;;;;;;36.65;24.42;;;;;;;8.44;46.60;98610.84;5115347;28;20039;-46
2023/03/02 05:23:35;;;;;;;29.65;25.17;;;;;;;8.18;46.18;98605.16;5097253;28;20055;-46
2023/03/02 05:26:01;;;;;;;35.30;25.15;;;;;;;7.87;46.53;98600.22;5114138;28;20067;-46
2023/03/02 05:28:27;;;;;;;39.90;26.55;;;;;;;7.71;46.43;98605.69;5096758;28;20028;-46
2023/03/02 05:31:17;;;;;;;40.78;24.83;;;;;;;7.51;46.75;98613.28;5096794;28;20054;-46
2023/03/02 05:33:53;;;;;;;43.05;26.38;;;;;;;7.36;47.66;98616.72;5094435;28;20032;-46
2023/03/02 05:36:23;;;;;;;38.70;26.10;;;;;;;7.37;47.31;98617.53;5096130;28;20389;-47
2023/03/02 05:38:53;;;;;;;33.05;25.38;;;;;;;7.20;47.88;98625.53;5096601;28;20062;-46
2023/03/02 05:41:23;;;;;;;34.45;24.98;;;;;;;7.25;48.12;98627.59;5096562;28;20015;-47
2023/03/02 05:43:53;;;;;;;44.63;25.45;;;;;;;7.27;47.80;98624.81;5096532;28;20462;-47
2023/03/02 05:46:26;;;;;;;45.08;25.92;;;;;;;7.27;47.85;98620.41;5114764;28;20023;-47
2023/03/02 05:49:02;;;;;;;82.30;28.98;;;;;;;7.15;48.01;98625.25;5096419;28;20481;-47
2023/03/02 05:51:37;;;;;;;38.40;25.95;;;;;;;7.09;48.67;98627.78;5096395;28;20032;-46
2023/03/02 05:54:13;;;;;;;42.27;26.47;;;;;;;6.94;49.25;98627.75;5079545;28;20118;-46
2023/03/02 05:56:49;;;;;;;37.60;25.85;;;;;;;6.76;49.55;98628.06;5113276;28;20292;-47
2023/03/02 05:59:18;;;;;;;37.58;25.70;;;;;;;6.56;49.29;98639.03;5079499;28;20396;-46
2023/03/02 06:01:47;;;;;;;40.60;26.33;;;;;;;6.55;49.55;98642.59;5114481;28;20051;-46
2023/03/02 06:04:16;;;;;;;37.90;26.70;;;;;;;6.56;49.96;98641.63;5114480;28;20435;-46
2023/03/02 06:06:45;;;;;;;39.55;27.55;;;;;;;6.69;49.99;98648.84;5096123;28;20023;-46
2023/03/02 06:09:12;;;;;;;47.35;27.52;;;;;;;6.76;49.79;98648.94;5095972;28;20020;-46
2023/03/02 06:11:39;;;;;;;38.17;24.42;;;;;;;6.70;49.60;98644.44;5095983;28;20027;-46
2023/03/02 06:14:07;;;;;;;32.58;25.48;;;;;;;6.77;49.41;98650.59;5114294;28;20073;-46
2023/03/02 06:16:36;;;;;;;45.60;27.58;;;;;;;6.88;49.30;98658.00;5095963;28;20032;-46
2023/03/02 06:19:06;;;;;;;59.55;27.05;;;;;;;6.93;49.48;98660.88;5081642;28;20117;-46
2023/03/02 06:21:35;;;;;;;41.47;27.60;;;;;;;7.04;49.15;98661.41;5093792;28;20056;-46
2023/03/02 06:24:02;;;;;;;46.65;29.13;;;;;;;7.05;49.97;98666.47;5093798;28;20706;-46
2023/03/02 06:26:30;;;;;;;40.72;28.77;;;;;;;7.16;51.13;98668.66;5092497;28;20032;-46
2023/03/02 06:28:59;;;;;;;44.35;28.20;;;;;;;7.26;50.22;98668.38;5093569;28;20024;-46
2023/03/02 06:31:28;;;;;;;59.90;28.02;;;;;;;7.33;50.56;98673.69;5093561;28;20421;-46
2023/03/02 06:34:02;;;;;;;42.00;28.33;;;;;;;7.48;49.64;98682.31;5093547;28;20028;-46
2023/03/02 06:36:30;;;;;;;60.78;30.15;;;;;;;7.49;49.91;98683.16;5093610;28;20172;-46
2023/03/02 06:38:58;;;;;;;50.58;29.33;;;;;;;7.66;49.67;98684.56;5093450;28;20032;-46
2023/03/02 06:41:26;;;;;;;69.53;30.48;;;;;;;7.74;49.51;98694.13;5075170;28;20032;-46
2023/03/02 06:43:54;;;;;;;53.70;30.05;;;;;;;7.84;50.08;98696.44;5093318;28;20028;-46
2023/03/02 06:46:22;;;;;;;57.33;29.35;;;;;;;7.83;49.09;98697.44;5074803;28;20031;-46
2023/03/02 06:48:50;;;;;;;54.83;28.80;;;;;;;7.75;48.00;98699.16;5074386;28;20031;-46
2023/03/02 06:51:18;;;;;;;65.05;32.42;;;;;;;7.53;48.56;98697.47;5074966;28;20107;-46
2023/03/02 06:53:45;;;;;;;43.10;27.30;;;;;;;7.33;48.16;98692.78;5074975;28;20085;-46
2023/03/02 06:56:14;;;;;;;34.90;25.50;;;;;;;7.27;48.74;98695.28;5074854;28;20028;-46
2023/03/02 06:58:41;;;;;;;42.80;26.23;;;;;;;7.35;48.43;98698.63;5092991;28;20036;-46
2023/03/02 07:01:08;;;;;;;57.78;28.98;;;;;;;7.34;48.25;98698.78;5093009;28;20387;-46
2023/03/02 07:03:36;;;;;;;57.22;29.50;;;;;;;7.43;48.52;98697.75;5074732;28;20028;-46
2023/03/02 07:06:02;;;;;;;60.25;28.20;;;;;;;7.58;48.63;98700.34;5074654;28;20089;-46
2023/03/02 07:08:30;;;;;;;60.35;29.38;;;;;;;7.65;48.42;98698.63;5092739;28;20028;-46
2023/03/02 07:10:58;;;;;;;58.05;29.20;;;;;;;7.56;49.11;98705.72;5092856;28;20016;-46
2023/03/02 07:13:25;;;;;;;50.95;30.85;;;;;;;7.59;48.58;98707.19;5093025;28;20028;-46
2023/03/02 07:15:53;;;;;;;54.15;31.35;;;;;;;7.63;48.79;98708.47;5092636;28;20450;-46
2023/03/02 07:18:40;;;;;;;42.55;29.23;;;;;;;7.72;48.76;98709.97;5096189;28;20040;-46
2023/03/02 07:21:08;;;;;;;57.47;28.75;;;;;;;7.91;48.26;98713.84;5092494;28;20404;-47
2023/03/02 07:23:35;;;;;;;49.08;29.40;;;;;;;8.07;48.11;98722.44;5112974;28;20066;-47
2023/03/02 07:26:07;;;;;;;46.22;29.50;;;;;;;8.23;47.83;98721.44;5112949;28;20030;-47
2023/03/02 07:28:39;;;;;;;45.35;27.88;;;;;;;8.28;47.82;98719.09;5094501;28;20035;-46
2023/03/02 07:31:05;;;;;;;53.92;30.30;;;;;;;8.42;47.49;98722.69;5094475;28;20031;-46
2023/03/02 07:33:32;;;;;;;53.55;28.50;;;;;;;8.27;47.60;98715.66;5094493;28;20091;-46
2023/03/02 07:36:00;;;;;;;44.20;28.13;;;;;;;8.22;46.74;98719.81;5112800;28;20022;-46
2023/03/02 07:38:28;;;;;;;42.83;28.55;;;;;;;8.39;47.00;98723.81;5112753;28;20051;-46
2023/03/02 07:40:54;;;;;;;44.38;27.70;;;;;;;8.49;46.21;98724.38;5112652;28;20031;-47
2023/03/02 07:43:24;;;;;;;47.67;29.73;;;;;;;8.52;46.86;98720.56;5112683;28;20016;-46
2023/03/02 07:45:51;;;;;;;37.65;26.95;;;;;;;8.68;45.99;98729.97;5112628;28;20020;-47
2023/03/02 07:48:22;;;;;;;41.80;28.00;;;;;;;8.73;45.75;98730.22;5112503;28;20027;-46
2023/03/02 07:50:49;;;;;;;44.78;28.63;;;;;;;8.62;45.82;98728.91;5112471;28;20016;-46
2023/03/02 07:53:15;;;;;;;34.10;27.00;;;;;;;8.43;45.71;98735.59;5112435;28;20034;-47
2023/03/02 07:55:42;;;;;;;45.45;26.90;;;;;;;8.37;45.64;98736.25;5112451;28;20027;-46
2023/03/02 07:58:09;;;;;;;44.58;27.30;;;;;;;8.40;45.37;98730.69;5112171;28;20405;-46
2023/03/02 08:00:38;;;;;;;44.97;28.02;;;;;;;8.45;45.74;98733.59;5112286;28;20023;-46
2023/03/02 08:03:05;;;;;;;55.05;28.08;;;;;;;8.46;45.72;98734.41;5112422;28;20028;-46
2023/03/02 08:05:31;;;;;;;66.40;27.80;;;;;;;8.52;45.13;98742.31;5112296;28;20016;-46
2023/03/02 08:08:09;;;;;;;64.22;28.60;;;;;;;8.80;44.90;98733.72;5112523;28;20044;-46
2023/03/02 08:10:36;;;;;;;74.32;29.88;;;;;;;9.09;44.74;98734.56;5112151;28;20128;-47
2023/03/02 08:13:04;;;;;;;46.22;27.35;;;;;;;9.43;43.80;98738.25;5112257;28;20032;-46
2023/03/02 08:15:31;;;;;;;47.50;28.08;;;;;;;9.72;43.16;98730.16;5112197;28;20047;-47
2023/03/02 08:17:59;;;;;;;45.60;25.80;;;;;;;9.85;42.48;98725.97;5111924;28;20040;-46
2023/03/02 08:20:26;;;;;;;42.92;27.80;;;;;;;9.91;42.49;98727.81;5112219;28;20036;-46
2023/03/02 08:22:53;;;;;;;63.95;29.17;;;;;;;10.02;42.44;98727.28;5112361;28;20393;-47
2023/03/02 08:25:19;;;;;;;47.63;28.23;;;;;;;9.97;42.17;98727.84;5112133;28;20016;-47
2023/03/02 08:27:46;;;;;;;38.33;30.00;;;;;;;10.08;42.22;98737.00;5093816;28;20574;-47
2023/03/02 08:33:04;;;;;;;51.75;30.17;;;;;;;10.50;41.65;98729.88;5111970;28;20046;-46
2023/03/02 08:35:43;;;;;;;34.90;25.27;;;;;;;10.93;40.73;98731.34;5112043;28;20119;-47
2023/03/02 08:38:12;;;;;;;34.38;27.30;;;;;;;11.30;39.26;98723.88;5112037;28;20063;-48
2023/03/02 08:40:38;;;;;;;39.92;27.65;;;;;;;11.57;38.94;98735.97;5093586;28;20511;-46
2023/03/02 08:43:11;;;;;;;58.28;27.85;;;;;;;11.60;38.48;98729.47;5111993;28;20069;-46
2023/03/02 08:45:38;;;;;;;35.55;26.95;;;;;;;11.54;38.67;98735.56;5111875;28;20136;-47
2023/03/02 08:48:05;;;;;;;167.95;111.57;;;;;;;11.56;39.39;98730.91;5112136;28;20378;-46
2023/03/02 08:50:32;;;;;;;77.50;64.32;;;;;;;11.61;38.93;98739.00;5111774;28;20498;-47
2023/03/02 08:52:59;;;;;;;93.38;80.47;;;;;;;11.88;38.35;98728.41;5111831;28;20077;-46
2023/03/02 08:55:26;;;;;;;62.13;51.58;;;;;;;12.16;38.01;98731.53;5111893;28;20106;-46
2023/03/02 08:57:53;;;;;;;63.38;39.47;;;;;;;12.36;37.28;98726.19;5111802;28;20027;-46
2023/03/02 09:00:20;;;;;;;38.05;31.85;;;;;;;12.61;36.26;98722.78;5111727;28;20028;-47
2023/03/02 09:02:47;;;;;;;45.47;29.55;;;;;;;13.13;36.00;98726.06;5111797;28;20023;-46
2023/03/02 09:05:14;;;;;;;51.90;28.60;;;;;;;13.16;35.68;98724.84;5111810;28;20092;-46
2023/03/02 09:07:41;;;;;;;40.97;28.60;;;;;;;13.03;35.45;98723.09;5111752;28;20024;-46
2023/03/02 09:10:08;;;;;;;37.75;28.75;;;;;;;13.38;35.27;98730.53;5093686;28;20147;-46
2023/03/02 09:12:35;;;;;;;41.00;25.90;;;;;;;14.18;34.80;98730.50;5115591;28;20027;-47
2023/03/02 09:15:02;;;;;;;41.40;27.75;;;;;;;15.87;32.51;98714.41;5115507;28;20489;-47
2023/03/02 09:17:29;;;;;;;36.55;27.40;;;;;;;16.84;30.23;98716.25;5115072;28;20578;-45
2023/03/02 09:19:59;;;;;;;40.15;29.10;;;;;;;16.12;31.12;98719.44;5115484;28;20031;-45
2023/03/02 09:22:49;;;;;;;37.22;27.52;;;;;;;17.06;30.68;98720.78;5115423;28;20023;-45
2023/03/02 09:25:19;;;;;;;35.60;26.73;;;;;;;18.96;28.39;98714.03;5115227;28;20036;-44
2023/03/02 09:27:46;;;;;;;37.63;27.10;;;;;;;19.72;26.84;98715.63;5115250;28;20038;-45
2023/03/02 09:30:14;;;;;;;42.35;28.95;;;;;;;20.06;26.04;98712.56;5115028;28;20026;-45
2023/03/02 09:32:42;;;;;;;32.88;26.45;;;;;;;20.66;25.37;98718.28;5096864;28;20453;-45
2023/03/02 09:35:09;;;;;;;52.95;29.35;;;;;;;20.53;23.66;98718.78;5115075;28;20472;-45
2023/03/02 09:37:45;;;;;;;37.35;26.25;;;;;;;20.81;23.78;98711.38;5115002;28;20030;-46
2023/03/02 09:40:32;;;;;;;32.28;28.63;;;;;;;21.10;24.17;98708.94;5115031;28;20125;-45
2023/03/02 09:43:24;;;;;;;45.85;27.67;;;;;;;21.41;22.59;98709.72;5096773;28;20055;-45
2023/03/02 09:46:08;;;;;;;32.40;28.15;;;;;;;21.50;23.05;98707.31;5114826;28;20020;-45
2023/03/02 09:48:56;;;;;;;36.13;28.10;;;;;;;21.12;23.69;98709.47;5114822;28;20028;-45
2023/03/02 09:51:53;;;;;;;37.00;29.65;;;;;;;20.88;23.09;98707.34;5096465;28;20055;-45
2023/03/02 09:54:25;;;;;;;37.53;28.38;;;;;;;20.33;24.62;98707.00;5114849;28;20023;-45
2023/03/02 09:57:31;;;;;;;33.30;28.63;;;;;;;20.93;24.42;98710.03;5114667;28;20024;-45
2023/03/02 10:00:41;;;;;;;32.20;27.52;;;;;;;21.83;23.39;98710.41;5114322;28;20034;-45
2023/03/02 10:03:50;;;;;;;32.65;29.20;;;;;;;22.56;22.88;98698.25;5114742;28;20067;-46
2023/03/02 10:06:28;;;;;;;29.55;26.38;;;;;;;22.47;21.18;98698.84;5096151;28;20020;-46
2023/03/02 10:08:55;;;;;;;33.58;27.52;;;;;;;21.92;21.68;98700.75;5114266;28;20034;-45
2023/03/02 10:12:06;;;;;;;44.05;28.30;;;;;;;21.90;22.01;98706.34;5098716;28;20043;-45
2023/03/02 10:14:43;;;;;;;31.42;26.65;;;;;;;21.63;22.27;98704.06;5114234;28;20032;-45
2023/03/02 10:17:54;;;;;;;37.67;26.83;;;;;;;22.01;22.71;98707.09;5114593;28;20393;-45
2023/03/02 10:20:57;;;;;;;30.77;27.60;;;;;;;22.69;21.78;98700.31;5114274;28;20023;-45
2023/03/02 10:23:56;;;;;;;33.22;27.50;;;;;;;23.00;21.27;98698.19;5114256;28;20020;-45
2023/03/02 10:26:46;;;;;;;30.15;26.92;;;;;;;22.99;20.88;98695.78;5114080;28;20035;-45
2023/03/02 10:29:25;;;;;;;35.10;29.90;;;;;;;22.19;22.16;98700.31;5114087;28;20034;-45
2023/03/02 10:32:06;;;;;;;36.78;27.77;;;;;;;21.59;21.87;98702.19;5114047;28;20032;-46
2023/03/02 10:34:36;;;;;;;41.88;28.35;;;;;;;20.92;22.47;98699.63;5113998;28;20061;-45
2023/03/02 10:37:13;;;;;;;33.97;27.27;;;;;;;20.56;23.43;98704.91;5095499;28;20054;-45
2023/03/02 10:39:40;;;;;;;31.95;28.65;;;;;;;20.83;23.12;98704.69;5113910;28;20023;-45
2023/03/02 10:42:57;;;;;;;55.45;28.08;;;;;;;21.60;22.89;98701.16;5095441;28;20030;-45
2023/03/02 10:45:29;;;;;;;34.63;27.63;;;;;;;23.00;21.80;98697.38;5095411;28;20552;-45
2023/03/02 10:48:02;;;;;;;30.80;27.52;;;;;;;23.65;20.80;98697.81;5113695;28;20027;-46
2023/03/02 10:50:36;;;;;;;73.05;38.63;;;;;;;24.11;20.49;98694.56;5113525;28;20102;-46
2023/03/02 10:53:17;;;;;;;102.65;54.65;;;;;;;24.64;20.18;98696.25;5095624;28;20035;-47
2023/03/02 10:55:47;;;;;;;66.00;49.17;;;;;;;24.58;19.76;98697.41;5113517;28;20462;-45
2023/03/02 10:58:24;;;;;;;40.00;29.27;;;;;;;24.75;18.87;98694.22;5113508;28;20030;-46
2023/03/02 11:01:04;;;;;;;29.77;26.73;;;;;;;24.59;19.13;98690.97;5095196;28;20102;-45
2023/03/02 11:03:32;;;;;;;34.20;26.80;;;;;;;25.03;18.75;98687.03;5113446;28;20031;-46
2023/03/02 11:06:22;;;;;;;34.20;27.38;;;;;;;24.75;19.27;98691.53;5095341;28;20024;-46
2023/03/02 11:09:02;;;;;;;29.90;26.25;;;;;;;24.30;19.55;98699.94;5113233;28;20023;-46
2023/03/02 11:11:31;;;;;;;30.25;27.00;;;;;;;24.87;19.18;98691.84;5095290;28;20527;-46
2023/03/02 11:14:29;;;;;;;35.30;27.50;;;;;;;25.24;18.76;98692.06;5113245;28;20061;-46
2023/03/02 11:16:58;;;;;;;28.80;25.85;;;;;;;25.40;18.24;98690.66;5092533;28;20063;-46
2023/03/02 11:19:45;;;;;;;29.70;26.75;;;;;;;25.76;18.40;98686.50;5112603;28;20048;-46
2023/03/02 11:22:44;;;;;;;33.13;26.10;;;;;;;25.89;18.33;98685.66;5112984;28;20047;-46
2023/03/02 11:25:47;;;;;;;31.25;25.98;;;;;;;25.63;17.91;98688.88;5112891;28;20051;-46
2023/03/02 11:28:44;;;;;;;32.97;27.83;;;;;;;25.36;18.25;98691.56;5112841;28;20028;-46
2023/03/02 11:31:36;;;;;;;31.38;28.05;;;;;;;24.86;18.54;98695.63;5094463;28;20024;-46
2023/03/02 11:34:31;;;;;;;33.47;28.55;;;;;;;25.01;18.78;98685.69;5112292;28;20024;-46
2023/03/02 11:37:53;;;;;;;30.20;27.02;;;;;;;25.02;18.62;98687.31;5112813;28;20046;-47
2023/03/02 11:40:41;;;;;;;31.60;26.73;;;;;;;24.97;18.83;98687.38;5112572;28;20077;-46
2023/03/02 11:43:18;;;;;;;29.40;26.25;;;;;;;25.19;18.42;98692.88;5112585;28;20501;-46
2023/03/02 11:46:06;;;;;;;33.13;28.15;;;;;;;24.87;18.74;98689.16;5112551;28;20122;-46
2023/03/02 11:48:43;;;;;;;28.77;26.08;;;;;;;24.72;18.80;98690.19;5112529;28;20027;-46
2023/03/02 11:51:35;;;;;;;33.67;29.95;;;;;;;24.43;19.19;98684.22;5112549;28;20028;-46
2023/03/02 11:54:05;;;;;;;31.23;27.60;;;;;;;24.22;19.46;98694.44;5112542;28;20451;-46
2023/03/02 11:56:37;;;;;;;30.33;27.23;;;;;;;23.85;19.73;98683.38;5112454;28;20028;-46
2023/03/02 11:59:18;;;;;;;32.10;28.80;;;;;;;23.72;19.37;98682.19;5112541;28;20454;-45
2023/03/02 12:01:52;;;;;;;56.97;30.65;;;;;;;23.56;20.13;98679.97;5112462;28;20028;-46
2023/03/02 12:04:36;;;;;;;34.85;31.20;;;;;;;22.81;20.80;98684.69;5112356;28;20023;-46
2023/03/02 12:07:26;;;;;;;34.70;31.35;;;;;;;22.90;20.53;98685.69;5094042;28;20024;-46
2023/03/02 12:10:23;;;;;;;38.25;32.95;;;;;;;22.69;21.01;98681.56;5112230;28;20038;-46
2023/03/02 12:13:17;;;;;;;48.72;29.73;;;;;;;23.12;20.74;98684.47;5094025;28;20031;-45
2023/03/02 12:15:46;;;;;;;34.75;28.92;;;;;;;23.27;20.60;98678.94;5093881;28;20106;-46